createdAt,value
2023-03-06T00:00:31.518Z,20.80
2023-03-06T00:05:32.961Z,20.90
2023-03-06T00:10:34.396Z,20.90
2023-03-06T00:15:35.804Z,20.90
2023-03-06T00:20:37.208Z,20.90
2023-03-06T00:25:38.645Z,20.90
2023-03-06T00:30:40.088Z,20.90
2023-03-06T00:35:41.630Z,20.80
2023-03-06T00:40:43.082Z,20.70
2023-03-06T00:45:44.556Z,20.70
2023-03-06T00:50:46.001Z,20.70
2023-03-06T00:55:47.403Z,20.60
2023-03-06T01:00:48.854Z,20.60
2023-03-06T01:05:50.279Z,20.50
2023-03-06T01:10:51.684Z,20.40
2023-03-06T01:15:53.101Z,20.40
2023-03-06T01:20:54.522Z,20.40
2023-03-06T01:25:55.920Z,20.50
2023-03-06T01:30:57.342Z,20.60
2023-03-06T01:35:58.777Z,20.70
2023-03-06T01:41:00.181Z,20.80
2023-03-06T01:46:01.620Z,20.90
2023-03-06T01:51:03.246Z,20.90
2023-03-06T01:56:04.698Z,20.90
2023-03-06T02:01:06.161Z,20.90
2023-03-06T02:06:07.634Z,20.90
2023-03-06T02:11:09.121Z,20.90
2023-03-06T02:16:10.547Z,20.80
2023-03-06T02:21:11.960Z,20.70
2023-03-06T02:26:13.366Z,20.70
2023-03-06T02:31:14.852Z,20.70
2023-03-06T02:36:16.273Z,20.60
2023-03-06T02:41:17.697Z,20.50
2023-03-06T02:46:19.166Z,20.50
2023-03-06T02:51:20.615Z,20.40
2023-03-06T02:56:22.001Z,20.40
2023-03-06T03:01:23.453Z,20.40
2023-03-06T03:06:25.068Z,20.50
2023-03-06T03:11:26.497Z,20.60
2023-03-06T03:16:27.905Z,20.70
2023-03-06T03:21:29.332Z,20.70
2023-03-06T03:26:30.758Z,20.80
2023-03-06T03:31:32.240Z,20.90
2023-03-06T03:36:33.676Z,20.90
2023-03-06T03:41:35.114Z,20.90
2023-03-06T03:46:36.586Z,20.80
2023-03-06T03:51:38.016Z,20.80
2023-03-06T03:56:39.420Z,20.70
2023-03-06T04:01:40.843Z,20.70
2023-03-06T04:06:42.275Z,20.60
2023-03-06T04:11:43.696Z,20.60
2023-03-06T04:16:45.137Z,20.50
2023-03-06T04:21:46.550Z,20.50
2023-03-06T04:26:47.964Z,20.40
2023-03-06T04:31:49.474Z,20.40
2023-03-06T04:36:50.895Z,20.30
2023-03-06T04:41:52.308Z,20.40
2023-03-06T04:46:53.769Z,20.60
2023-03-06T04:51:55.194Z,20.70
2023-03-06T04:56:56.590Z,20.90
2023-03-06T05:01:58.064Z,21.00
2023-03-06T05:06:59.518Z,21.10
2023-03-06T05:12:00.913Z,21.10
2023-03-06T05:17:02.328Z,21.10
2023-03-06T05:22:03.765Z,21.10
2023-03-06T05:27:05.173Z,21.10
2023-03-06T05:32:06.721Z,21.00
2023-03-06T05:37:08.163Z,21.00
2023-03-06T05:42:09.581Z,20.90
2023-03-06T05:47:11.000Z,20.80
2023-03-06T05:52:12.401Z,20.70
2023-03-06T05:57:13.847Z,20.70
2023-03-06T06:02:15.381Z,20.60
2023-03-06T06:07:16.808Z,20.50
2023-03-06T06:12:18.211Z,20.50
2023-03-06T06:17:19.633Z,20.40
2023-03-06T06:22:21.053Z,20.40
2023-03-06T06:27:22.458Z,20.40
2023-03-06T06:32:23.878Z,20.50
2023-03-06T06:37:25.402Z,20.70
2023-03-06T06:42:33.726Z,20.80
2023-03-06T06:47:38.635Z,20.90
2023-03-06T06:52:40.071Z,21.00
2023-03-06T06:57:41.567Z,21.00
2023-03-06T07:02:42.996Z,21.00
2023-03-06T07:07:44.395Z,21.10
2023-03-06T07:12:45.842Z,21.00
2023-03-06T07:17:49.912Z,21.00
2023-03-06T07:22:52.031Z,20.90
2023-03-06T07:27:54.346Z,20.80
2023-03-06T07:32:56.140Z,20.70
2023-03-06T07:37:57.549Z,20.70
2023-03-06T07:43:13.034Z,20.60
2023-03-06T07:48:19.989Z,20.50
2023-03-06T07:53:21.391Z,20.50
2023-03-06T07:58:22.804Z,20.40
2023-03-06T08:03:24.211Z,20.40
2023-03-06T08:08:25.673Z,20.40
2023-03-06T08:13:27.088Z,20.40
2023-03-06T08:18:28.528Z,20.50
2023-03-06T08:23:29.941Z,20.70
2023-03-06T08:28:31.370Z,20.80
2023-03-06T08:33:32.788Z,20.80
2023-03-06T08:38:34.190Z,20.90
2023-03-06T08:43:35.600Z,20.90
2023-03-06T08:48:37.005Z,20.90
2023-03-06T08:53:43.414Z,20.90
2023-03-06T08:58:45.149Z,20.80
2023-03-06T09:03:46.596Z,20.80
2023-03-06T09:08:47.989Z,20.70
2023-03-06T09:13:49.404Z,20.70
2023-03-06T09:18:50.837Z,20.70
2023-03-06T09:23:52.278Z,20.50
2023-03-06T09:28:53.792Z,20.50
2023-03-06T09:33:55.691Z,20.40
2023-03-06T09:38:57.113Z,20.40
2023-03-06T09:43:58.515Z,20.40
2023-03-06T09:48:59.918Z,20.40
2023-03-06T09:54:01.348Z,20.40
2023-03-06T09:59:02.773Z,20.60
2023-03-06T10:04:04.170Z,20.70
2023-03-06T10:09:05.573Z,20.70
2023-03-06T10:14:07.002Z,20.70
2023-03-06T10:19:08.528Z,20.70
2023-03-06T10:24:09.957Z,20.70
2023-03-06T10:29:11.356Z,20.70
2023-03-06T10:34:12.745Z,20.70
2023-03-06T10:39:15.708Z,20.60
2023-03-06T10:44:17.131Z,20.60
2023-03-06T10:49:18.548Z,20.50
2023-03-06T10:54:19.966Z,20.50
2023-03-06T10:59:21.385Z,20.40
2023-03-06T11:04:22.853Z,20.40
2023-03-06T11:09:24.303Z,20.30
2023-03-06T11:14:27.639Z,20.30
2023-03-06T11:19:29.171Z,20.40
2023-03-06T11:24:30.605Z,20.50
2023-03-06T11:29:34.307Z,20.70
2023-03-06T11:34:37.018Z,20.70
2023-03-06T11:39:38.427Z,20.90
2023-03-06T11:44:39.834Z,20.90
2023-03-06T11:49:41.263Z,20.90
2023-03-06T11:54:42.690Z,20.90
2023-03-06T11:59:44.110Z,20.90
2023-03-06T12:04:45.517Z,20.90
2023-03-06T12:09:46.936Z,20.80
2023-03-06T12:14:48.360Z,20.70
2023-03-06T12:19:49.776Z,20.70
2023-03-06T12:24:51.185Z,20.60
2023-03-06T12:29:52.622Z,20.60
2023-03-06T12:34:54.034Z,20.50
2023-03-06T12:39:55.447Z,20.50
2023-03-06T12:44:57.036Z,20.40
2023-03-06T12:49:58.466Z,20.40
2023-03-06T12:54:59.931Z,20.30
2023-03-06T13:00:01.399Z,20.40
2023-03-06T13:05:02.826Z,20.40
2023-03-06T13:10:04.246Z,20.50
2023-03-06T13:15:05.650Z,20.70
2023-03-06T13:20:07.106Z,20.70
2023-03-06T13:25:08.611Z,20.80
2023-03-06T13:30:10.057Z,20.80
2023-03-06T13:35:11.467Z,20.90
2023-03-06T13:40:13.002Z,20.80
2023-03-06T13:45:14.435Z,20.80
2023-03-06T13:50:15.863Z,20.80
2023-03-06T13:55:17.468Z,20.70
2023-03-06T14:00:18.914Z,20.70
2023-03-06T14:05:20.375Z,20.60
2023-03-06T14:10:21.780Z,20.60
2023-03-06T14:15:23.211Z,20.50
2023-03-06T14:20:24.680Z,20.50
2023-03-06T14:25:26.087Z,20.40
2023-03-06T14:30:28.628Z,20.30
2023-03-06T14:35:30.109Z,20.40
2023-03-06T14:40:31.552Z,20.40
2023-03-06T14:45:32.968Z,20.50
2023-03-06T14:50:34.379Z,20.60
2023-03-06T14:55:35.839Z,20.80
2023-03-06T15:00:37.375Z,20.80
2023-03-06T15:05:38.844Z,20.90
2023-03-06T15:10:40.260Z,20.90
2023-03-06T15:15:41.718Z,20.90
2023-03-06T15:20:43.177Z,20.90
2023-03-06T15:25:44.637Z,20.80
2023-03-06T15:30:46.057Z,20.80
2023-03-06T15:35:47.475Z,20.70
2023-03-06T15:40:48.891Z,20.70
2023-03-06T15:45:50.347Z,20.60
2023-03-06T15:50:51.850Z,20.60
2023-03-06T15:55:53.289Z,20.50
2023-03-06T16:00:54.779Z,20.50
2023-03-06T16:05:56.222Z,20.40
2023-03-06T16:10:57.623Z,20.40
2023-03-06T16:15:59.017Z,20.40
2023-03-06T16:21:00.513Z,20.40
2023-03-06T16:26:01.923Z,20.60
2023-03-06T16:31:03.367Z,20.70
2023-03-06T16:36:04.783Z,20.70
2023-03-06T16:41:06.214Z,20.90
2023-03-06T16:46:07.702Z,20.90
2023-03-06T16:51:09.175Z,20.90
2023-03-06T16:56:10.583Z,20.90
2023-03-06T17:01:12.019Z,20.90
2023-03-06T17:06:13.452Z,20.80
2023-03-06T17:11:14.866Z,20.80
2023-03-06T17:16:16.392Z,20.70
2023-03-06T17:21:17.952Z,20.70
2023-03-06T17:26:19.349Z,20.60
2023-03-06T17:31:21.064Z,20.50
2023-03-06T17:36:22.485Z,20.50
2023-03-06T17:41:23.977Z,20.40
2023-03-06T17:46:25.471Z,20.40
2023-03-06T17:51:26.903Z,20.40
2023-03-06T17:56:28.311Z,20.40
2023-03-06T18:01:29.772Z,20.50
2023-03-06T18:06:31.277Z,20.70
2023-03-06T18:11:32.701Z,20.70
2023-03-06T18:16:34.135Z,20.80
2023-03-06T18:21:35.640Z,20.90
2023-03-06T18:26:37.060Z,20.90
2023-03-06T18:31:38.515Z,21.00
2023-03-06T18:36:39.936Z,20.90
2023-03-06T18:41:41.422Z,20.90
2023-03-06T18:46:42.848Z,20.90
2023-03-06T18:51:44.240Z,20.80
2023-03-06T18:56:45.637Z,20.70
2023-03-06T19:01:47.034Z,20.70
2023-03-06T19:06:48.449Z,20.60
2023-03-06T19:11:49.856Z,20.60
2023-03-06T19:16:51.321Z,20.50
2023-03-06T19:21:52.740Z,20.50
2023-03-06T19:26:54.150Z,20.40
2023-03-06T19:31:55.615Z,20.40
2023-03-06T19:36:57.024Z,20.50
2023-03-06T19:41:58.438Z,20.70
2023-03-06T19:46:59.867Z,21.00
2023-03-06T19:52:01.295Z,21.30
2023-03-06T19:57:02.914Z,21.50
2023-03-06T20:02:04.329Z,21.70
2023-03-06T20:07:05.719Z,21.80
2023-03-06T20:12:08.272Z,22.00
2023-03-06T20:17:09.795Z,22.10
2023-03-06T20:22:11.313Z,22.30
2023-03-06T20:27:12.710Z,22.40
2023-03-06T20:32:14.168Z,22.50
2023-03-06T20:37:15.614Z,22.50
2023-03-06T20:42:17.045Z,22.50
2023-03-06T20:47:18.513Z,22.50
2023-03-06T20:52:19.924Z,22.40
2023-03-06T20:57:21.329Z,22.40
2023-03-06T21:02:22.744Z,22.30
2023-03-06T21:07:24.156Z,22.30
2023-03-06T21:12:25.589Z,22.20
2023-03-06T21:17:26.984Z,22.10
2023-03-06T21:22:28.401Z,22.20
2023-03-06T21:27:29.818Z,22.20
2023-03-06T21:32:31.319Z,22.30
2023-03-06T21:37:32.770Z,22.50
2023-03-06T21:42:34.179Z,22.60
2023-03-06T21:47:35.602Z,22.70
2023-03-06T21:52:37.009Z,22.80
2023-03-06T21:57:38.420Z,23.00
2023-03-06T22:02:39.820Z,23.20
2023-03-06T22:07:41.237Z,23.30
2023-03-06T22:12:42.651Z,23.50
2023-03-06T22:17:44.068Z,23.70
2023-03-06T22:22:45.481Z,23.80
2023-03-06T22:27:46.891Z,23.90
2023-03-06T22:32:48.366Z,24.00
2023-03-06T22:37:49.828Z,24.20
2023-03-06T22:42:51.256Z,24.30
2023-03-06T22:47:57.097Z,24.40
2023-03-06T22:53:03.801Z,24.50
2023-03-06T22:58:05.204Z,24.60
2023-03-06T23:03:06.611Z,24.60
2023-03-06T23:08:08.021Z,24.70
2023-03-06T23:13:09.425Z,24.80
2023-03-06T23:18:10.859Z,24.90
2023-03-06T23:23:12.311Z,24.90
2023-03-06T23:28:13.745Z,25.00
2023-03-06T23:33:15.158Z,25.00
2023-03-06T23:38:16.589Z,25.00
2023-03-06T23:43:18.018Z,25.00
2023-03-06T23:48:19.439Z,24.90
2023-03-06T23:53:20.871Z,24.80
2023-03-06T23:58:22.265Z,24.60
